Address 0x8111171d5d4d220941b27ee7242a8b383c2ec5b6 1

 
 
Txn Hash Method
Block
From
To
Value [Txn Fee]
0xacb64d8b0e237c45dbd4b28998e76b94a43465dfe9f6894c0fe3e88a2bdaa1ffCreate Order301465162022-06-29 18:49:371 day 1 hr ago0x8111171d5d4d220941b27ee7242a8b383c2ec5b6OUT 0x13794ce30b05b4e6f04820d5064d089ec2afdaeb0 MATIC0.007787508212 127.309272729
0x88d782c19ec29e6d591cd3c67d7cf001cca287ec80e53a363df8c88c89511b76Create Order301018972022-06-28 15:18:232 days 5 hrs ago0x8111171d5d4d220941b27ee7242a8b383c2ec5b6OUT 0x13794ce30b05b4e6f04820d5064d089ec2afdaeb0 MATIC0.007521478078 48.500006957
0xd31ef550439ca3c80da5a655db5292f063bbe05f026f93d27a9cce1eae0ab139Execute Order301018422022-06-28 15:14:592 days 5 hrs ago0x8111171d5d4d220941b27ee7242a8b383c2ec5b6OUT 0x13794ce30b05b4e6f04820d5064d089ec2afdaeb0 MATIC0.006787826675 50.537000426
0x1882f907c9db883099d347f513a547e6fba33814e92321739f7b5e86f1baac62Swap301018042022-06-28 15:13:012 days 5 hrs ago0x8111171d5d4d220941b27ee7242a8b383c2ec5b6OUT Metamask: Swap Router0 MATIC0.011638869079 38.220000065
0x3c6475669c3aeab37c98cbb3e4acc66ba716b1c0f174313200904c891f4d8cf3Swap Exact Token...301018012022-06-28 15:12:552 days 5 hrs ago0x8111171d5d4d220941b27ee7242a8b383c2ec5b6OUT SushiSwap: Router0 MATIC0.003632301644 31.943555049
0xdb71d30cf04c5f51890a5728c4615a9a27bf14d4bcb14d3bda7dc384c53daf68Approve301017942022-06-28 15:12:412 days 5 hrs ago0x8111171d5d4d220941b27ee7242a8b383c2ec5b6OUT Mapper: USDT Stablecoin0 MATIC0.001990191843 38.220000065
0x3776253bff41328e6424dea8abc8612ec08f2f4f557bace7271b0eda4b4b7bb0Swap Exact Token...300633732022-06-27 15:10:223 days 5 hrs ago0x8111171d5d4d220941b27ee7242a8b383c2ec5b6OUT SushiSwap: Router0 MATIC0.026823934741 269.72282294
0x49d8a178215eab24880f6edab721f97738bec5e2160a6b6a37b7c5f61e1673a0Transfer298014382022-06-20 19:23:5110 days 1 hr ago0x8111171d5d4d220941b27ee7242a8b383c2ec5b6SELF0x8111171d5d4d220941b27ee7242a8b383c2ec5b60 MATIC0.000858392258 40.875821815
0xd47125faed1776f74e32444b912363515c7cc6508b58850b232905d0871b3c88Create Order297982272022-06-20 17:05:4910 days 3 hrs ago0x8111171d5d4d220941b27ee7242a8b383c2ec5b6OUT 0x13794ce30b05b4e6f04820d5064d089ec2afdaeb0 MATIC0.004656410892 30.027799653
0x03aa0ce7208b0e9f168ed27b0b0bd554a6a31d8f09387ee3737a693e9124fe4bCreate Order297981872022-06-20 17:04:2510 days 3 hrs ago0x8111171d5d4d220941b27ee7242a8b383c2ec5b6OUT 0x13794ce30b05b4e6f04820d5064d089ec2afdaeb0 MATIC0.001839613347 30.073783676
0xe70e8d53704eb07ac36c56057dfb47d17c0c63965a4a90b940bac8a7c51011eeCreate Order297981872022-06-20 17:04:2510 days 3 hrs ago0x8111171d5d4d220941b27ee7242a8b383c2ec5b6OUT 0x13794ce30b05b4e6f04820d5064d089ec2afdaeb0 MATIC0.00557147336 35.92876353
0xd230ef1cbb76c849b01c2a83e158b749dc3c77836634ac31d071f20ed1b8c7bdSwap Exact Token...297963832022-06-20 15:57:0510 days 4 hrs ago0x8111171d5d4d220941b27ee7242a8b383c2ec5b6OUT SushiSwap: Router0 MATIC0.00801704276 73.617714812
0x9181e337f78a569cf572d8e912dc58a983df1fc13552061c045503f4777ffcf1Swap297962632022-06-20 15:51:5310 days 4 hrs ago0x8111171d5d4d220941b27ee7242a8b383c2ec5b6OUT Metamask: Swap Router0 MATIC0.011855289657 58.145232786
0xc8f06b0c5e07e99c5823e16557fc16fe77971ec5fd711f5e377729a31c2117f1Create Order297927712022-06-20 13:42:5410 days 6 hrs ago0x8111171d5d4d220941b27ee7242a8b383c2ec5b6OUT 0x13794ce30b05b4e6f04820d5064d089ec2afdaeb0 MATIC0.003654664736 59.746031329
0x9e63e12c26935698d95f0b2bc3db61e853d5c954e165abf245e643a5b0d23dffCreate Order297927322022-06-20 13:41:3210 days 6 hrs ago0x8111171d5d4d220941b27ee7242a8b383c2ec5b6OUT 0x13794ce30b05b4e6f04820d5064d089ec2afdaeb0 MATIC0.01035586305 66.781860134
0x87dede474b58aa2f0691d4970ef6d1fa8e9e3b27bc78164c24f21be9a2a92b96Execute Order297926842022-06-20 13:39:5210 days 6 hrs ago0x8111171d5d4d220941b27ee7242a8b383c2ec5b6OUT 0x13794ce30b05b4e6f04820d5064d089ec2afdaeb0 MATIC0.00709576637 49.073047461
0x394b391b980e43b02dd7f36835901719f23a56400ac8adf8c6c254b6edace1bfCreate Order297712072022-06-19 23:43:0410 days 20 hrs ago0x8111171d5d4d220941b27ee7242a8b383c2ec5b6OUT 0x13794ce30b05b4e6f04820d5064d089ec2afdaeb0 MATIC0.00203548942 33.275942796
0x29c0f91af2e28b00e668357ba0fef2f8a38d032262263949777408fca5fe2326Create Order297693812022-06-19 22:36:0010 days 22 hrs ago0x8111171d5d4d220941b27ee7242a8b383c2ec5b6OUT 0x13794ce30b05b4e6f04820d5064d089ec2afdaeb0 MATIC0.005358634728 34.556230917
0x4bd3e6eb4a5d84573525f73e01b7472487b5e07c9e003668f9eda381253b1b3bCreate Order297693212022-06-19 22:33:5610 days 22 hrs ago0x8111171d5d4d220941b27ee7242a8b383c2ec5b6OUT 0x13794ce30b05b4e6f04820d5064d089ec2afdaeb0 MATIC0.002494299049 40.791179582
0x4d66877a59593432b8da6aa70e6726d9d156c077a571688d317d1ea25ff08ba0Mint Players297691712022-06-19 22:26:4010 days 22 hrs ago0x8111171d5d4d220941b27ee7242a8b383c2ec5b6OUT 0x28f49ba7b20cad0a8256be34484cf733b0f9a88f0 MATIC0.074337312874 33.006342151
0x45d57abe7bd5b5279ceda83a522843eca4d108b3b6c89041188957fd4e443e0bFinish Scouting297691332022-06-19 22:25:2010 days 22 hrs ago0x8111171d5d4d220941b27ee7242a8b383c2ec5b6OUT 0x28f49ba7b20cad0a8256be34484cf733b0f9a88f0 MATIC0.013659295431 35.268452812
0x3e90ee88de9d2614d5bb39c2ed94534afbf71115978ae8bf976941dc5c8e55680x9fa74491296136812022-06-15 21:55:1114 days 22 hrs ago0x8111171d5d4d220941b27ee7242a8b383c2ec5b6OUT 0xc5017be80b4446988e8686168396289a9a62668e0 MATIC0.006215380217 42.449563697
0x195af2ac775acbb1d8b2b63fda9315ec8cbc573fb541e3b55d3da4bb1572c9a8Create Order296044932022-06-15 16:32:3115 days 4 hrs ago0x8111171d5d4d220941b27ee7242a8b383c2ec5b6OUT 0x13794ce30b05b4e6f04820d5064d089ec2afdaeb0 MATIC0.005429333235 35.012144425
0xb48ae600968836477ea56ee2626c22c759f1af69f73d379abec99d6fc328688eExecute Order296044812022-06-15 16:31:4315 days 4 hrs ago0x8111171d5d4d220941b27ee7242a8b383c2ec5b6OUT 0x13794ce30b05b4e6f04820d5064d089ec2afdaeb0 MATIC0.005635875596 38.976704729
0x9ea92328ce9de8a7e60abec1426176ac1138717aa02f301f7d28c4c4bf038e14Swap296044172022-06-15 16:29:2715 days 4 hrs ago0x8111171d5d4d220941b27ee7242a8b383c2ec5b6OUT Metamask: Swap Router10 MATIC0.009840008914 36.51940988
[ Download CSV Export 
Latest 3 internal transactions
Parent Txn Hash Block From To Value
0xd49dfcecff7f1236ed17f7a8fb09bf9068c53c544048b57acaa6e05c55538f1e252771602022-02-24 1:41:55126 days 18 hrs ago SushiSwap: Router0x8111171d5d4d220941b27ee7242a8b383c2ec5b618.884211185957563182 MATIC
0xc7a68088995b28a116b231e56a6d657ad8fc2782d9a4104530290a39cdef24ef249803672022-02-15 18:41:01135 days 1 hr ago SushiSwap: Router0x8111171d5d4d220941b27ee7242a8b383c2ec5b68.308034691921610642 MATIC
0xe7c86e855ca29adf78e5f3cabd8cb5cf81f374d31c4955a1bc621cc44f9cbd07249803672022-02-15 18:41:01135 days 1 hr ago SushiSwap: Router0x8111171d5d4d220941b27ee7242a8b383c2ec5b65 MATIC
[ Download CSV Export 
Loading

Contract Name:
0 MATIC

Compiler Version
0

Optimization Enabled:
0 MATIC

Other Settings:
-NA-
Block Transaction Gas Used Reward
Age Block Fee Address BC Fee Address Voting Power Jailed Incoming
Block Uncle Number Difficulty Gas Used Reward
Loading
Loading
Make sure to use the "Vote Down" button for any spammy posts, and the "Vote Up" for interesting conversations.